Standard City, Illinois
Current Conditions -  °F | °C
As of 8:15 PM on Friday 19 Dec 2014 (Local Time) from K3LF Reporting Station
Overcast Overcast  
Wind Chill: 27°   Ceiling: 6000
Heat Index: 32°   Visibility: 10mi
Dew Point: 23°   Wind: 5mph
Humidity: 71%   Direction: 80°E
Pressure: 30.26"   Gusts: NA
Location:  39.35°N, 89.78°W
Report Text: K3LF 200215Z AUTO 08004KT 10SM OVC060 00/M05 A3026 RMK AO2 T10021048
Loading
Personal Weather Stations






























Interactive Weather Map New forecast layout! Learn more

10-Day Weather Forecast

Advertisements
Track Severe Weather on mobile